sensor_id;sensor_type;location;lat;lon;timestamp;P1;durP1;ratioP1;P2;durP2;ratioP2
16766;SDS011;8501;49.926;8.404;2023-08-12T00:00:50;10.50;;;8.20;;
16766;SDS011;8501;49.926;8.404;2023-08-12T00:03:16;11.48;;;8.07;;
16766;SDS011;8501;49.926;8.404;2023-08-12T00:05:42;9.25;;;8.25;;
16766;SDS011;8501;49.926;8.404;2023-08-12T00:08:08;9.05;;;7.93;;
16766;SDS011;8501;49.926;8.404;2023-08-12T00:10:34;10.07;;;7.97;;
16766;SDS011;8501;49.926;8.404;2023-08-12T00:12:59;12.90;;;8.80;;
16766;SDS011;8501;49.926;8.404;2023-08-12T00:15:25;11.50;;;8.20;;
16766;SDS011;8501;49.926;8.404;2023-08-12T00:17:52;12.05;;;8.20;;
16766;SDS011;8501;49.926;8.404;2023-08-12T00:20:18;10.60;;;8.05;;
16766;SDS011;8501;49.926;8.404;2023-08-12T00:22:43;11.88;;;8.18;;
16766;SDS011;8501;49.926;8.404;2023-08-12T00:25:10;10.40;;;8.05;;
16766;SDS011;8501;49.926;8.404;2023-08-12T00:27:36;10.25;;;8.13;;
16766;SDS011;8501;49.926;8.404;2023-08-12T00:30:02;10.95;;;8.18;;
16766;SDS011;8501;49.926;8.404;2023-08-12T00:32:29;9.25;;;7.85;;
16766;SDS011;8501;49.926;8.404;2023-08-12T00:34:55;14.18;;;8.60;;
16766;SDS011;8501;49.926;8.404;2023-08-12T00:37:21;10.50;;;8.02;;
16766;SDS011;8501;49.926;8.404;2023-08-12T00:39:46;11.57;;;7.75;;
16766;SDS011;8501;49.926;8.404;2023-08-12T00:42:12;8.98;;;7.57;;
16766;SDS011;8501;49.926;8.404;2023-08-12T00:44:37;10.35;;;7.65;;
16766;SDS011;8501;49.926;8.404;2023-08-12T00:47:03;9.15;;;8.23;;
16766;SDS011;8501;49.926;8.404;2023-08-12T00:49:28;10.98;;;7.85;;
16766;SDS011;8501;49.926;8.404;2023-08-12T00:51:56;10.63;;;7.47;;
16766;SDS011;8501;49.926;8.404;2023-08-12T00:54:21;9.23;;;7.45;;
16766;SDS011;8501;49.926;8.404;2023-08-12T00:56:49;10.05;;;7.47;;
16766;SDS011;8501;49.926;8.404;2023-08-12T00:59:15;10.82;;;8.18;;
16766;SDS011;8501;49.926;8.404;2023-08-12T01:01:42;11.27;;;8.02;;
16766;SDS011;8501;49.926;8.404;2023-08-12T01:04:09;10.02;;;7.55;;
16766;SDS011;8501;49.926;8.404;2023-08-12T01:06:35;11.55;;;7.88;;
16766;SDS011;8501;49.926;8.404;2023-08-12T01:09:01;13.98;;;8.10;;
16766;SDS011;8501;49.926;8.404;2023-08-12T01:11:42;10.23;;;7.75;;
16766;SDS011;8501;49.926;8.404;2023-08-12T01:14:22;11.70;;;8.65;;
16766;SDS011;8501;49.926;8.404;2023-08-12T01:16:53;10.10;;;7.75;;
16766;SDS011;8501;49.926;8.404;2023-08-12T01:22:01;12.05;;;7.93;;
16766;SDS011;8501;49.926;8.404;2023-08-12T01:24:33;11.13;;;8.60;;
16766;SDS011;8501;49.926;8.404;2023-08-12T01:27:00;11.77;;;8.80;;
16766;SDS011;8501;49.926;8.404;2023-08-12T01:29:26;9.75;;;8.35;;
16766;SDS011;8501;49.926;8.404;2023-08-12T01:31:54;13.32;;;8.65;;
16766;SDS011;8501;49.926;8.404;2023-08-12T01:34:50;12.70;;;8.50;;
16766;SDS011;8501;49.926;8.404;2023-08-12T01:37:23;13.50;;;8.60;;
16766;SDS011;8501;49.926;8.404;2023-08-12T01:39:53;13.82;;;8.40;;
16766;SDS011;8501;49.926;8.404;2023-08-12T01:42:20;13.10;;;9.27;;
16766;SDS011;8501;49.926;8.404;2023-08-12T01:44:46;15.65;;;9.35;;
16766;SDS011;8501;49.926;8.404;2023-08-12T01:47:13;19.65;;;9.43;;
16766;SDS011;8501;49.926;8.404;2023-08-12T01:49:38;14.23;;;9.38;;
16766;SDS011;8501;49.926;8.404;2023-08-12T01:52:04;12.38;;;9.32;;
16766;SDS011;8501;49.926;8.404;2023-08-12T01:54:29;13.77;;;9.15;;
16766;SDS011;8501;49.926;8.404;2023-08-12T01:57:00;15.30;;;9.27;;
16766;SDS011;8501;49.926;8.404;2023-08-12T01:59:27;10.57;;;8.40;;
16766;SDS011;8501;49.926;8.404;2023-08-12T02:01:52;10.65;;;8.43;;
16766;SDS011;8501;49.926;8.404;2023-08-12T02:04:18;16.10;;;8.73;;
16766;SDS011;8501;49.926;8.404;2023-08-12T02:06:43;13.57;;;9.45;;
16766;SDS011;8501;49.926;8.404;2023-08-12T02:09:09;12.38;;;9.35;;
16766;SDS011;8501;49.926;8.404;2023-08-12T02:11:34;11.30;;;9.23;;
16766;SDS011;8501;49.926;8.404;2023-08-12T02:14:00;12.05;;;9.43;;
16766;SDS011;8501;49.926;8.404;2023-08-12T02:16:25;11.57;;;8.63;;
16766;SDS011;8501;49.926;8.404;2023-08-12T02:18:51;12.43;;;9.55;;
16766;SDS011;8501;49.926;8.404;2023-08-12T02:21:16;13.40;;;8.73;;
16766;SDS011;8501;49.926;8.404;2023-08-12T02:23:42;11.15;;;8.98;;
16766;SDS011;8501;49.926;8.404;2023-08-12T02:26:09;16.23;;;10.07;;
16766;SDS011;8501;49.926;8.404;2023-08-12T02:28:35;15.88;;;10.45;;
16766;SDS011;8501;49.926;8.404;2023-08-12T02:31:00;15.05;;;11.00;;
16766;SDS011;8501;49.926;8.404;2023-08-12T02:33:26;17.55;;;11.60;;
16766;SDS011;8501;49.926;8.404;2023-08-12T02:35:52;17.30;;;11.57;;
16766;SDS011;8501;49.926;8.404;2023-08-12T02:38:22;14.30;;;10.98;;
16766;SDS011;8501;49.926;8.404;2023-08-12T02:40:48;14.88;;;11.68;;
16766;SDS011;8501;49.926;8.404;2023-08-12T02:43:14;14.18;;;11.02;;
16766;SDS011;8501;49.926;8.404;2023-08-12T02:45:40;15.35;;;11.32;;
16766;SDS011;8501;49.926;8.404;2023-08-12T02:48:06;12.82;;;10.48;;
16766;SDS011;8501;49.926;8.404;2023-08-12T02:50:31;11.20;;;9.70;;
16766;SDS011;8501;49.926;8.404;2023-08-12T02:52:57;12.35;;;9.48;;
16766;SDS011;8501;49.926;8.404;2023-08-12T02:55:22;10.73;;;9.10;;
16766;SDS011;8501;49.926;8.404;2023-08-12T02:57:48;12.45;;;9.90;;
16766;SDS011;8501;49.926;8.404;2023-08-12T03:00:14;11.95;;;9.68;;
16766;SDS011;8501;49.926;8.404;2023-08-12T03:02:42;11.63;;;10.07;;
16766;SDS011;8501;49.926;8.404;2023-08-12T03:05:08;13.05;;;10.38;;
16766;SDS011;8501;49.926;8.404;2023-08-12T03:07:34;16.27;;;10.95;;
16766;SDS011;8501;49.926;8.404;2023-08-12T03:10:00;14.88;;;11.05;;
16766;SDS011;8501;49.926;8.404;2023-08-12T03:12:26;12.60;;;10.32;;
16766;SDS011;8501;49.926;8.404;2023-08-12T03:14:51;11.80;;;9.93;;
16766;SDS011;8501;49.926;8.404;2023-08-12T03:17:17;13.43;;;10.50;;
16766;SDS011;8501;49.926;8.404;2023-08-12T03:19:43;12.63;;;10.35;;
16766;SDS011;8501;49.926;8.404;2023-08-12T03:22:08;12.10;;;10.15;;
16766;SDS011;8501;49.926;8.404;2023-08-12T03:24:34;13.18;;;11.20;;
16766;SDS011;8501;49.926;8.404;2023-08-12T03:26:59;12.45;;;10.70;;
16766;SDS011;8501;49.926;8.404;2023-08-12T03:29:25;12.88;;;10.82;;
16766;SDS011;8501;49.926;8.404;2023-08-12T03:31:51;14.70;;;10.75;;
16766;SDS011;8501;49.926;8.404;2023-08-12T03:34:16;12.85;;;10.82;;
16766;SDS011;8501;49.926;8.404;2023-08-12T03:36:42;13.75;;;11.38;;
16766;SDS011;8501;49.926;8.404;2023-08-12T03:39:07;13.35;;;10.38;;
16766;SDS011;8501;49.926;8.404;2023-08-12T03:41:33;13.55;;;10.60;;
16766;SDS011;8501;49.926;8.404;2023-08-12T03:43:59;15.77;;;11.15;;
16766;SDS011;8501;49.926;8.404;2023-08-12T03:46:24;13.80;;;11.50;;
16766;SDS011;8501;49.926;8.404;2023-08-12T03:48:50;15.07;;;11.13;;
16766;SDS011;8501;49.926;8.404;2023-08-12T03:51:15;13.95;;;10.98;;
16766;SDS011;8501;49.926;8.404;2023-08-12T03:53:41;13.60;;;10.93;;
16766;SDS011;8501;49.926;8.404;2023-08-12T03:56:07;14.82;;;12.15;;
16766;SDS011;8501;49.926;8.404;2023-08-12T03:58:32;15.18;;;11.98;;
16766;SDS011;8501;49.926;8.404;2023-08-12T04:00:58;15.35;;;12.10;;
16766;SDS011;8501;49.926;8.404;2023-08-12T04:03:24;16.10;;;12.90;;
16766;SDS011;8501;49.926;8.404;2023-08-12T04:05:50;18.17;;;13.32;;
16766;SDS011;8501;49.926;8.404;2023-08-12T04:08:17;18.27;;;13.48;;
16766;SDS011;8501;49.926;8.404;2023-08-12T04:10:45;16.80;;;13.80;;
16766;SDS011;8501;49.926;8.404;2023-08-12T04:13:12;17.77;;;13.80;;
16766;SDS011;8501;49.926;8.404;2023-08-12T04:15:38;17.55;;;14.10;;
16766;SDS011;8501;49.926;8.404;2023-08-12T04:18:03;18.23;;;13.80;;
16766;SDS011;8501;49.926;8.404;2023-08-12T04:20:29;17.98;;;14.48;;
16766;SDS011;8501;49.926;8.404;2023-08-12T04:22:55;18.45;;;14.68;;
16766;SDS011;8501;49.926;8.404;2023-08-12T04:25:21;16.25;;;14.10;;
16766;SDS011;8501;49.926;8.404;2023-08-12T04:27:47;19.02;;;13.63;;
16766;SDS011;8501;49.926;8.404;2023-08-12T04:30:14;17.63;;;14.35;;
16766;SDS011;8501;49.926;8.404;2023-08-12T04:32:41;20.08;;;13.85;;
16766;SDS011;8501;49.926;8.404;2023-08-12T04:35:06;20.10;;;15.45;;
16766;SDS011;8501;49.926;8.404;2023-08-12T04:37:33;20.27;;;15.25;;
16766;SDS011;8501;49.926;8.404;2023-08-12T04:39:58;16.70;;;14.43;;
16766;SDS011;8501;49.926;8.404;2023-08-12T04:42:24;21.65;;;14.70;;
16766;SDS011;8501;49.926;8.404;2023-08-12T04:44:49;17.15;;;14.57;;
16766;SDS011;8501;49.926;8.404;2023-08-12T04:47:15;17.23;;;14.15;;
16766;SDS011;8501;49.926;8.404;2023-08-12T04:49:41;17.65;;;14.50;;
16766;SDS011;8501;49.926;8.404;2023-08-12T04:52:06;16.30;;;14.40;;
16766;SDS011;8501;49.926;8.404;2023-08-12T04:54:32;17.30;;;15.38;;
16766;SDS011;8501;49.926;8.404;2023-08-12T04:59:26;17.38;;;14.52;;
16766;SDS011;8501;49.926;8.404;2023-08-12T05:01:51;17.92;;;14.65;;
16766;SDS011;8501;49.926;8.404;2023-08-12T05:04:17;17.17;;;14.27;;
16766;SDS011;8501;49.926;8.404;2023-08-12T05:06:42;18.67;;;15.05;;
16766;SDS011;8501;49.926;8.404;2023-08-12T05:09:07;16.40;;;14.63;;
16766;SDS011;8501;49.926;8.404;2023-08-12T05:11:33;17.42;;;14.65;;
16766;SDS011;8501;49.926;8.404;2023-08-12T05:13:59;19.25;;;15.13;;
16766;SDS011;8501;49.926;8.404;2023-08-12T05:16:24;16.98;;;14.52;;
16766;SDS011;8501;49.926;8.404;2023-08-12T05:18:50;19.02;;;14.85;;
16766;SDS011;8501;49.926;8.404;2023-08-12T05:21:16;18.48;;;14.38;;
16766;SDS011;8501;49.926;8.404;2023-08-12T05:23:42;17.30;;;13.88;;
16766;SDS011;8501;49.926;8.404;2023-08-12T05:26:07;16.38;;;14.18;;
16766;SDS011;8501;49.926;8.404;2023-08-12T05:28:33;18.23;;;13.90;;
16766;SDS011;8501;49.926;8.404;2023-08-12T05:30:58;20.48;;;14.50;;
16766;SDS011;8501;49.926;8.404;2023-08-12T05:33:24;18.35;;;14.60;;
16766;SDS011;8501;49.926;8.404;2023-08-12T05:35:49;17.48;;;14.82;;
16766;SDS011;8501;49.926;8.404;2023-08-12T05:38:15;17.73;;;14.30;;
16766;SDS011;8501;49.926;8.404;2023-08-12T05:40:41;16.67;;;14.25;;
16766;SDS011;8501;49.926;8.404;2023-08-12T05:43:07;17.92;;;14.82;;
16766;SDS011;8501;49.926;8.404;2023-08-12T05:45:32;17.52;;;14.07;;
16766;SDS011;8501;49.926;8.404;2023-08-12T05:47:58;17.33;;;14.43;;
16766;SDS011;8501;49.926;8.404;2023-08-12T05:50:23;19.25;;;15.02;;
16766;SDS011;8501;49.926;8.404;2023-08-12T05:52:49;18.98;;;14.18;;
16766;SDS011;8501;49.926;8.404;2023-08-12T05:55:14;18.48;;;14.10;;
16766;SDS011;8501;49.926;8.404;2023-08-12T05:57:40;18.38;;;14.73;;
16766;SDS011;8501;49.926;8.404;2023-08-12T06:00:06;17.85;;;14.70;;
16766;SDS011;8501;49.926;8.404;2023-08-12T06:02:32;17.75;;;14.38;;
16766;SDS011;8501;49.926;8.404;2023-08-12T06:04:57;16.90;;;14.50;;
16766;SDS011;8501;49.926;8.404;2023-08-12T06:07:23;17.23;;;15.13;;
16766;SDS011;8501;49.926;8.404;2023-08-12T06:09:49;18.95;;;15.05;;
16766;SDS011;8501;49.926;8.404;2023-08-12T06:12:15;20.38;;;15.70;;
16766;SDS011;8501;49.926;8.404;2023-08-12T06:14:41;19.05;;;15.52;;
16766;SDS011;8501;49.926;8.404;2023-08-12T06:17:06;19.23;;;15.35;;
16766;SDS011;8501;49.926;8.404;2023-08-12T06:19:32;21.50;;;16.08;;
16766;SDS011;8501;49.926;8.404;2023-08-12T06:21:59;18.30;;;15.90;;
16766;SDS011;8501;49.926;8.404;2023-08-12T06:24:24;20.25;;;16.10;;
16766;SDS011;8501;49.926;8.404;2023-08-12T06:26:50;20.20;;;15.77;;
16766;SDS011;8501;49.926;8.404;2023-08-12T06:29:15;20.30;;;16.55;;
16766;SDS011;8501;49.926;8.404;2023-08-12T06:31:41;18.88;;;15.77;;
16766;SDS011;8501;49.926;8.404;2023-08-12T06:34:07;22.15;;;17.33;;
16766;SDS011;8501;49.926;8.404;2023-08-12T06:36:32;20.25;;;14.73;;
16766;SDS011;8501;49.926;8.404;2023-08-12T06:38:58;19.90;;;16.52;;
16766;SDS011;8501;49.926;8.404;2023-08-12T06:41:24;18.73;;;15.23;;
16766;SDS011;8501;49.926;8.404;2023-08-12T06:43:49;19.85;;;15.48;;
16766;SDS011;8501;49.926;8.404;2023-08-12T06:46:15;21.85;;;19.65;;
16766;SDS011;8501;49.926;8.404;2023-08-12T06:48:40;19.23;;;16.67;;
16766;SDS011;8501;49.926;8.404;2023-08-12T06:51:06;20.35;;;18.13;;
16766;SDS011;8501;49.926;8.404;2023-08-12T06:53:40;18.80;;;16.15;;
16766;SDS011;8501;49.926;8.404;2023-08-12T06:56:05;18.42;;;14.90;;
16766;SDS011;8501;49.926;8.404;2023-08-12T06:58:31;17.15;;;15.35;;
16766;SDS011;8501;49.926;8.404;2023-08-12T07:00:57;17.58;;;14.43;;
16766;SDS011;8501;49.926;8.404;2023-08-12T07:03:24;16.80;;;15.00;;
16766;SDS011;8501;49.926;8.404;2023-08-12T07:05:49;18.75;;;14.25;;
16766;SDS011;8501;49.926;8.404;2023-08-12T07:08:15;16.38;;;14.25;;
16766;SDS011;8501;49.926;8.404;2023-08-12T07:10:41;17.55;;;14.30;;
16766;SDS011;8501;49.926;8.404;2023-08-12T07:13:06;15.90;;;14.00;;
16766;SDS011;8501;49.926;8.404;2023-08-12T07:15:32;17.05;;;13.90;;
16766;SDS011;8501;49.926;8.404;2023-08-12T07:17:58;18.63;;;13.80;;
16766;SDS011;8501;49.926;8.404;2023-08-12T07:20:24;17.17;;;13.43;;
16766;SDS011;8501;49.926;8.404;2023-08-12T07:22:50;19.13;;;14.70;;
16766;SDS011;8501;49.926;8.404;2023-08-12T07:25:15;18.70;;;13.88;;
16766;SDS011;8501;49.926;8.404;2023-08-12T07:27:41;19.50;;;15.30;;
16766;SDS011;8501;49.926;8.404;2023-08-12T07:30:07;18.38;;;14.57;;
16766;SDS011;8501;49.926;8.404;2023-08-12T07:32:33;20.13;;;14.68;;
16766;SDS011;8501;49.926;8.404;2023-08-12T07:34:59;19.05;;;15.82;;
16766;SDS011;8501;49.926;8.404;2023-08-12T07:37:25;19.30;;;15.55;;
16766;SDS011;8501;49.926;8.404;2023-08-12T07:39:51;19.33;;;15.32;;
16766;SDS011;8501;49.926;8.404;2023-08-12T07:42:16;19.65;;;15.85;;
16766;SDS011;8501;49.926;8.404;2023-08-12T07:44:42;19.52;;;15.85;;
16766;SDS011;8501;49.926;8.404;2023-08-12T07:47:08;18.20;;;15.27;;
16766;SDS011;8501;49.926;8.404;2023-08-12T07:49:34;19.38;;;16.15;;
16766;SDS011;8501;49.926;8.404;2023-08-12T07:52:00;21.05;;;16.10;;
16766;SDS011;8501;49.926;8.404;2023-08-12T07:54:26;21.27;;;16.33;;
16766;SDS011;8501;49.926;8.404;2023-08-12T07:56:51;19.98;;;16.80;;
16766;SDS011;8501;49.926;8.404;2023-08-12T07:59:18;18.48;;;16.55;;
16766;SDS011;8501;49.926;8.404;2023-08-12T08:01:44;20.42;;;16.50;;
16766;SDS011;8501;49.926;8.404;2023-08-12T08:04:10;19.65;;;15.65;;
16766;SDS011;8501;49.926;8.404;2023-08-12T08:06:36;18.85;;;14.80;;
16766;SDS011;8501;49.926;8.404;2023-08-12T08:09:01;18.02;;;15.07;;
16766;SDS011;8501;49.926;8.404;2023-08-12T08:11:28;18.30;;;14.68;;
16766;SDS011;8501;49.926;8.404;2023-08-12T08:13:55;18.50;;;15.85;;
16766;SDS011;8501;49.926;8.404;2023-08-12T08:16:20;18.13;;;15.23;;
16766;SDS011;8501;49.926;8.404;2023-08-12T08:18:46;20.42;;;15.32;;
16766;SDS011;8501;49.926;8.404;2023-08-12T08:21:11;18.23;;;14.45;;
16766;SDS011;8501;49.926;8.404;2023-08-12T08:23:37;17.27;;;14.50;;
16766;SDS011;8501;49.926;8.404;2023-08-12T08:26:02;17.58;;;13.50;;
16766;SDS011;8501;49.926;8.404;2023-08-12T08:28:28;14.60;;;12.85;;
16766;SDS011;8501;49.926;8.404;2023-08-12T08:30:53;15.25;;;12.48;;
16766;SDS011;8501;49.926;8.404;2023-08-12T08:33:19;11.90;;;10.60;;
16766;SDS011;8501;49.926;8.404;2023-08-12T08:35:44;11.50;;;8.65;;
16766;SDS011;8501;49.926;8.404;2023-08-12T08:38:10;13.55;;;10.73;;
16766;SDS011;8501;49.926;8.404;2023-08-12T08:40:35;13.02;;;11.63;;
16766;SDS011;8501;49.926;8.404;2023-08-12T08:43:02;14.02;;;11.73;;
16766;SDS011;8501;49.926;8.404;2023-08-12T08:45:31;13.10;;;11.48;;
16766;SDS011;8501;49.926;8.404;2023-08-12T08:47:59;12.65;;;11.32;;
16766;SDS011;8501;49.926;8.404;2023-08-12T08:50:26;13.65;;;12.25;;
16766;SDS011;8501;49.926;8.404;2023-08-12T08:52:54;13.98;;;12.45;;
16766;SDS011;8501;49.926;8.404;2023-08-12T08:55:21;14.32;;;12.85;;
16766;SDS011;8501;49.926;8.404;2023-08-12T08:57:47;13.02;;;11.60;;
16766;SDS011;8501;49.926;8.404;2023-08-12T09:00:15;12.10;;;10.90;;
16766;SDS011;8501;49.926;8.404;2023-08-12T09:02:44;12.30;;;11.00;;
16766;SDS011;8501;49.926;8.404;2023-08-12T09:05:14;14.15;;;12.65;;
16766;SDS011;8501;49.926;8.404;2023-08-12T09:07:42;13.32;;;10.85;;
16766;SDS011;8501;49.926;8.404;2023-08-12T09:10:10;14.35;;;11.63;;
16766;SDS011;8501;49.926;8.404;2023-08-12T09:12:37;12.80;;;11.50;;
16766;SDS011;8501;49.926;8.404;2023-08-12T09:15:03;13.85;;;11.48;;
16766;SDS011;8501;49.926;8.404;2023-08-12T09:17:32;12.60;;;11.00;;
16766;SDS011;8501;49.926;8.404;2023-08-12T09:19:58;20.48;;;11.48;;
16766;SDS011;8501;49.926;8.404;2023-08-12T09:22:25;22.70;;;12.70;;
16766;SDS011;8501;49.926;8.404;2023-08-12T09:24:57;13.77;;;11.70;;
16766;SDS011;8501;49.926;8.404;2023-08-12T09:27:23;13.07;;;11.25;;
16766;SDS011;8501;49.926;8.404;2023-08-12T09:29:49;14.25;;;11.10;;
16766;SDS011;8501;49.926;8.404;2023-08-12T09:32:20;12.32;;;10.27;;
16766;SDS011;8501;49.926;8.404;2023-08-12T09:34:49;10.57;;;9.13;;
16766;SDS011;8501;49.926;8.404;2023-08-12T09:37:19;10.65;;;9.18;;
16766;SDS011;8501;49.926;8.404;2023-08-12T09:39:47;10.77;;;9.23;;
16766;SDS011;8501;49.926;8.404;2023-08-12T09:42:13;11.27;;;10.10;;
16766;SDS011;8501;49.926;8.404;2023-08-12T09:44:40;11.35;;;9.30;;
16766;SDS011;8501;49.926;8.404;2023-08-12T09:47:06;11.45;;;9.73;;
16766;SDS011;8501;49.926;8.404;2023-08-12T09:49:35;10.07;;;9.00;;
16766;SDS011;8501;49.926;8.404;2023-08-12T09:52:03;9.88;;;8.50;;
16766;SDS011;8501;49.926;8.404;2023-08-12T09:54:33;9.40;;;8.10;;
16766;SDS011;8501;49.926;8.404;2023-08-12T09:57:00;8.38;;;7.47;;
16766;SDS011;8501;49.926;8.404;2023-08-12T09:59:30;8.95;;;8.05;;
16766;SDS011;8501;49.926;8.404;2023-08-12T10:01:57;9.82;;;7.90;;
16766;SDS011;8501;49.926;8.404;2023-08-12T10:04:23;8.68;;;7.78;;
16766;SDS011;8501;49.926;8.404;2023-08-12T10:06:53;11.48;;;8.35;;
16766;SDS011;8501;49.926;8.404;2023-08-12T10:09:19;8.95;;;7.85;;
16766;SDS011;8501;49.926;8.404;2023-08-12T10:11:46;12.07;;;7.80;;
16766;SDS011;8501;49.926;8.404;2023-08-12T10:14:12;8.32;;;7.43;;
16766;SDS011;8501;49.926;8.404;2023-08-12T10:16:39;9.90;;;7.47;;
16766;SDS011;8501;49.926;8.404;2023-08-12T10:19:10;9.52;;;7.82;;
16766;SDS011;8501;49.926;8.404;2023-08-12T10:21:37;10.00;;;7.60;;
16766;SDS011;8501;49.926;8.404;2023-08-12T10:24:03;11.57;;;8.60;;
16766;SDS011;8501;49.926;8.404;2023-08-12T10:26:30;10.68;;;8.93;;
16766;SDS011;8501;49.926;8.404;2023-08-12T10:28:57;11.25;;;9.55;;
16766;SDS011;8501;49.926;8.404;2023-08-12T10:31:24;12.52;;;10.02;;
16766;SDS011;8501;49.926;8.404;2023-08-12T10:33:52;12.60;;;9.52;;
16766;SDS011;8501;49.926;8.404;2023-08-12T10:36:18;10.10;;;8.27;;
16766;SDS011;8501;49.926;8.404;2023-08-12T10:38:46;10.40;;;8.93;;
16766;SDS011;8501;49.926;8.404;2023-08-12T10:41:15;11.73;;;9.18;;
16766;SDS011;8501;49.926;8.404;2023-08-12T10:44:09;10.57;;;8.68;;
16766;SDS011;8501;49.926;8.404;2023-08-12T10:46:34;9.73;;;7.80;;
16766;SDS011;8501;49.926;8.404;2023-08-12T10:51:48;11.13;;;8.25;;
16766;SDS011;8501;49.926;8.404;2023-08-12T10:54:24;10.85;;;8.40;;
16766;SDS011;8501;49.926;8.404;2023-08-12T11:04:52;9.98;;;7.88;;
16766;SDS011;8501;49.926;8.404;2023-08-12T11:07:32;10.15;;;8.20;;
16766;SDS011;8501;49.926;8.404;2023-08-12T11:10:09;10.50;;;7.93;;
16766;SDS011;8501;49.926;8.404;2023-08-12T11:12:38;8.88;;;7.70;;
16766;SDS011;8501;49.926;8.404;2023-08-12T11:15:05;10.82;;;7.38;;
16766;SDS011;8501;49.926;8.404;2023-08-12T11:17:38;9.80;;;7.82;;
16766;SDS011;8501;49.926;8.404;2023-08-12T11:20:05;9.55;;;7.20;;
16766;SDS011;8501;49.926;8.404;2023-08-12T11:22:34;9.57;;;6.90;;
16766;SDS011;8501;49.926;8.404;2023-08-12T11:25:02;10.13;;;7.47;;
16766;SDS011;8501;49.926;8.404;2023-08-12T11:27:37;8.77;;;7.88;;
16766;SDS011;8501;49.926;8.404;2023-08-12T11:30:11;8.07;;;7.28;;
16766;SDS011;8501;49.926;8.404;2023-08-12T11:32:40;10.38;;;7.38;;
16766;SDS011;8501;49.926;8.404;2023-08-12T11:35:10;8.95;;;7.63;;
16766;SDS011;8501;49.926;8.404;2023-08-12T11:37:40;10.82;;;6.85;;
16766;SDS011;8501;49.926;8.404;2023-08-12T11:40:07;7.75;;;5.90;;
16766;SDS011;8501;49.926;8.404;2023-08-12T11:42:34;8.13;;;5.25;;
16766;SDS011;8501;49.926;8.404;2023-08-12T11:45:01;6.15;;;5.22;;
16766;SDS011;8501;49.926;8.404;2023-08-12T11:47:28;6.30;;;5.45;;
16766;SDS011;8501;49.926;8.404;2023-08-12T11:49:53;6.43;;;5.05;;
16766;SDS011;8501;49.926;8.404;2023-08-12T11:52:19;6.57;;;5.43;;
16766;SDS011;8501;49.926;8.404;2023-08-12T11:54:45;5.72;;;4.93;;
16766;SDS011;8501;49.926;8.404;2023-08-12T11:57:11;9.23;;;5.10;;
16766;SDS011;8501;49.926;8.404;2023-08-12T11:59:37;7.22;;;5.00;;
16766;SDS011;8501;49.926;8.404;2023-08-12T12:02:02;6.75;;;4.88;;
16766;SDS011;8501;49.926;8.404;2023-08-12T12:04:32;5.32;;;4.80;;
16766;SDS011;8501;49.926;8.404;2023-08-12T12:06:58;6.80;;;4.90;;
16766;SDS011;8501;49.926;8.404;2023-08-12T12:09:25;6.10;;;4.65;;
16766;SDS011;8501;49.926;8.404;2023-08-12T12:11:53;5.63;;;4.55;;
16766;SDS011;8501;49.926;8.404;2023-08-12T12:14:19;5.57;;;4.40;;
16766;SDS011;8501;49.926;8.404;2023-08-12T12:16:47;4.53;;;3.88;;
16766;SDS011;8501;49.926;8.404;2023-08-12T12:19:20;6.03;;;3.88;;
16766;SDS011;8501;49.926;8.404;2023-08-12T12:21:53;4.43;;;4.03;;
16766;SDS011;8501;49.926;8.404;2023-08-12T12:24:19;5.32;;;3.80;;
16766;SDS011;8501;49.926;8.404;2023-08-12T12:26:45;4.78;;;3.50;;
16766;SDS011;8501;49.926;8.404;2023-08-12T12:29:12;6.93;;;3.80;;
16766;SDS011;8501;49.926;8.404;2023-08-12T12:31:38;4.35;;;3.25;;
16766;SDS011;8501;49.926;8.404;2023-08-12T12:34:05;5.72;;;3.20;;
16766;SDS011;8501;49.926;8.404;2023-08-12T12:36:31;4.45;;;3.17;;
16766;SDS011;8501;49.926;8.404;2023-08-12T12:39:01;4.75;;;3.22;;
16766;SDS011;8501;49.926;8.404;2023-08-12T12:41:27;4.13;;;2.90;;
16766;SDS011;8501;49.926;8.404;2023-08-12T12:43:53;4.30;;;3.30;;
16766;SDS011;8501;49.926;8.404;2023-08-12T12:46:18;5.03;;;3.63;;
16766;SDS011;8501;49.926;8.404;2023-08-12T12:48:44;5.15;;;3.30;;
16766;SDS011;8501;49.926;8.404;2023-08-12T12:51:11;5.13;;;3.80;;
16766;SDS011;8501;49.926;8.404;2023-08-12T12:53:37;4.50;;;3.22;;
16766;SDS011;8501;49.926;8.404;2023-08-12T12:56:03;5.93;;;3.22;;
16766;SDS011;8501;49.926;8.404;2023-08-12T12:58:35;3.63;;;2.85;;
16766;SDS011;8501;49.926;8.404;2023-08-12T13:01:02;5.20;;;3.13;;
16766;SDS011;8501;49.926;8.404;2023-08-12T13:03:29;4.68;;;3.10;;
16766;SDS011;8501;49.926;8.404;2023-08-12T13:05:55;5.05;;;3.53;;
16766;SDS011;8501;49.926;8.404;2023-08-12T13:08:21;4.93;;;2.78;;
16766;SDS011;8501;49.926;8.404;2023-08-12T13:10:47;3.90;;;2.60;;
16766;SDS011;8501;49.926;8.404;2023-08-12T13:13:13;3.92;;;2.90;;
16766;SDS011;8501;49.926;8.404;2023-08-12T13:15:40;4.03;;;2.95;;
16766;SDS011;8501;49.926;8.404;2023-08-12T13:18:06;4.35;;;2.60;;
16766;SDS011;8501;49.926;8.404;2023-08-12T13:20:33;4.20;;;3.03;;
16766;SDS011;8501;49.926;8.404;2023-08-12T13:22:59;3.60;;;2.63;;
16766;SDS011;8501;49.926;8.404;2023-08-12T13:25:25;4.70;;;3.50;;
16766;SDS011;8501;49.926;8.404;2023-08-12T13:27:50;4.03;;;2.80;;
16766;SDS011;8501;49.926;8.404;2023-08-12T13:30:16;3.88;;;2.88;;
16766;SDS011;8501;49.926;8.404;2023-08-12T13:32:41;3.45;;;3.13;;
16766;SDS011;8501;49.926;8.404;2023-08-12T13:35:07;4.28;;;3.08;;
16766;SDS011;8501;49.926;8.404;2023-08-12T13:37:32;4.40;;;3.05;;
16766;SDS011;8501;49.926;8.404;2023-08-12T13:39:58;4.78;;;3.28;;
16766;SDS011;8501;49.926;8.404;2023-08-12T13:42:24;5.55;;;3.05;;
16766;SDS011;8501;49.926;8.404;2023-08-12T13:44:49;3.88;;;3.08;;
16766;SDS011;8501;49.926;8.404;2023-08-12T13:47:14;6.53;;;3.20;;
16766;SDS011;8501;49.926;8.404;2023-08-12T13:49:40;4.22;;;3.15;;
16766;SDS011;8501;49.926;8.404;2023-08-12T13:52:05;4.05;;;3.30;;
16766;SDS011;8501;49.926;8.404;2023-08-12T13:54:31;4.60;;;3.65;;
16766;SDS011;8501;49.926;8.404;2023-08-12T13:56:56;6.43;;;3.30;;
16766;SDS011;8501;49.926;8.404;2023-08-12T13:59:24;3.78;;;3.10;;
16766;SDS011;8501;49.926;8.404;2023-08-12T14:01:49;5.75;;;3.72;;
16766;SDS011;8501;49.926;8.404;2023-08-12T14:04:15;4.20;;;3.35;;
16766;SDS011;8501;49.926;8.404;2023-08-12T14:06:40;3.67;;;3.20;;
16766;SDS011;8501;49.926;8.404;2023-08-12T14:09:06;4.25;;;3.63;;
16766;SDS011;8501;49.926;8.404;2023-08-12T14:11:33;4.80;;;3.65;;
16766;SDS011;8501;49.926;8.404;2023-08-12T14:13:58;4.57;;;3.80;;
16766;SDS011;8501;49.926;8.404;2023-08-12T14:16:24;4.63;;;3.80;;
16766;SDS011;8501;49.926;8.404;2023-08-12T14:18:50;5.32;;;4.05;;
16766;SDS011;8501;49.926;8.404;2023-08-12T14:21:16;4.30;;;3.90;;
16766;SDS011;8501;49.926;8.404;2023-08-12T14:23:41;5.00;;;4.15;;
16766;SDS011;8501;49.926;8.404;2023-08-12T14:26:07;4.53;;;4.13;;
16766;SDS011;8501;49.926;8.404;2023-08-12T14:28:32;4.90;;;4.20;;
16766;SDS011;8501;49.926;8.404;2023-08-12T14:30:58;5.88;;;3.95;;
16766;SDS011;8501;49.926;8.404;2023-08-12T14:33:23;5.47;;;4.50;;
16766;SDS011;8501;49.926;8.404;2023-08-12T14:35:50;5.35;;;4.40;;
16766;SDS011;8501;49.926;8.404;2023-08-12T14:38:17;5.28;;;4.55;;
16766;SDS011;8501;49.926;8.404;2023-08-12T14:40:47;4.90;;;4.40;;
16766;SDS011;8501;49.926;8.404;2023-08-12T14:47:04;5.65;;;5.07;;
16766;SDS011;8501;49.926;8.404;2023-08-12T14:49:30;5.93;;;4.93;;
16766;SDS011;8501;49.926;8.404;2023-08-12T14:51:56;4.90;;;4.28;;
16766;SDS011;8501;49.926;8.404;2023-08-12T14:54:21;6.15;;;4.38;;
16766;SDS011;8501;49.926;8.404;2023-08-12T14:56:47;5.68;;;5.18;;
16766;SDS011;8501;49.926;8.404;2023-08-12T14:59:13;6.45;;;4.82;;
16766;SDS011;8501;49.926;8.404;2023-08-12T15:01:38;7.53;;;4.95;;